Time;durP1;ratioP1;P1;durP2;ratioP2;P2;SDS_P1;SDS_P2;PMS_P1;PMS_P2;Temp;Humidity;BMP_temperature;BMP_pressure;BME280_temperature;BME280_humidity;BME280_pressure;Samples;Min_cycle;Max_cycle;Signal;HPM_P1;HPM_P2
2022/01/19 00:00:27;;;;;;;99.43;41.07;;;0.70;99.90;;;;;;5041929;28;20973;-65
2022/01/19 00:02:57;;;;;;;88.20;38.40;;;0.60;99.90;;;;;;5044049;28;20281;-65
2022/01/19 00:05:26;;;;;;;101.80;40.47;;;0.60;99.90;;;;;;5042607;28;20606;-65
2022/01/19 00:07:54;;;;;;;98.20;37.47;;;0.50;99.90;;;;;;5040711;28;20209;-65
2022/01/19 00:10:27;;;;;;;122.47;42.37;;;0.40;99.90;;;;;;5046476;28;20745;-65
2022/01/19 00:12:56;;;;;;;119.43;41.43;;;0.30;99.90;;;;;;5046380;28;20220;-65
2022/01/19 00:15:26;;;;;;;161.17;43.13;;;0.40;99.90;;;;;;5042720;28;20223;-65
2022/01/19 00:17:57;;;;;;;90.10;37.90;;;0.40;99.90;;;;;;5043373;28;20804;-65
2022/01/19 00:20:30;;;;;;;90.00;37.10;;;0.40;99.90;;;;;;5042120;28;20615;-65
2022/01/19 00:23:00;;;;;;;96.43;39.10;;;0.30;99.90;;;;;;5041731;28;20709;-65
2022/01/19 00:25:29;;;;;;;92.70;34.70;;;0.30;99.90;;;;;;5046911;28;20197;-65
2022/01/19 00:27:57;;;;;;;93.47;35.00;;;0.30;99.90;;;;;;5040025;28;20242;-65
2022/01/19 00:30:26;;;;;;;117.23;37.27;;;0.20;99.90;;;;;;5042417;28;20766;-65
2022/01/19 00:32:58;;;;;;;86.50;37.57;;;0.20;99.90;;;;;;5044289;28;20270;-65
2022/01/19 00:35:28;;;;;;;124.20;41.50;;;0.10;99.90;;;;;;5045068;28;20223;-65
2022/01/19 00:37:57;;;;;;;110.47;40.03;;;0.00;99.90;;;;;;5040646;28;20197;-65
2022/01/19 00:40:25;;;;;;;119.97;40.43;;;-0.10;99.90;;;;;;5043347;28;20683;-65
2022/01/19 00:42:54;;;;;;;148.17;39.57;;;-0.10;99.90;;;;;;5045075;28;20822;-65
2022/01/19 00:45:23;;;;;;;110.20;38.17;;;-0.20;99.90;;;;;;5040899;28;20603;-65
2022/01/19 00:47:51;;;;;;;105.23;39.37;;;-0.30;99.90;;;;;;5044943;28;20280;-65
2022/01/19 00:50:23;;;;;;;130.03;41.87;;;-0.20;99.90;;;;;;5045890;28;20690;-65
2022/01/19 00:52:54;;;;;;;130.10;40.13;;;-0.20;99.90;;;;;;5044533;28;20659;-65
2022/01/19 00:55:24;;;;;;;113.43;39.30;;;-0.20;99.90;;;;;;5041272;28;20802;-65
2022/01/19 00:57:53;;;;;;;209.87;44.67;;;-0.20;99.90;;;;;;5039495;28;20201;-65
2022/01/19 01:00:24;;;;;;;172.43;44.33;;;-0.30;99.90;;;;;;5035659;28;20205;-65
2022/01/19 01:03:12;;;;;;;241.07;46.53;;;-0.30;99.90;;;;;;5038900;28;20204;-65
2022/01/19 01:06:18;;;;;;;137.77;39.13;;;-0.30;99.90;;;;;;5041566;28;20199;-65
2022/01/19 01:08:48;;;;;;;132.17;40.07;;;-0.30;99.90;;;;;;5042514;28;20254;-65
2022/01/19 01:11:17;;;;;;;102.13;39.77;;;-0.40;99.90;;;;;;5046710;28;20262;-65
2022/01/19 01:16:34;;;;;;;104.93;41.43;;;-0.40;99.90;;;;;;5042769;28;20247;-65
2022/01/19 01:19:05;;;;;;;205.40;45.27;;;-0.40;99.90;;;;;;5047220;28;20201;-65
2022/01/19 01:21:34;;;;;;;138.97;38.33;;;-0.50;99.90;;;;;;5040379;28;20216;-65
2022/01/19 01:24:04;;;;;;;118.27;38.73;;;-0.40;99.90;;;;;;5047448;28;20279;-65
2022/01/19 01:26:32;;;;;;;118.00;39.30;;;-0.40;99.90;;;;;;5044616;28;20668;-65
2022/01/19 01:29:01;;;;;;;96.23;37.67;;;-0.40;99.90;;;;;;5039743;28;20197;-65
2022/01/19 01:31:30;;;;;;;182.07;45.57;;;-0.50;99.90;;;;;;5044498;28;21685;-65
2022/01/19 01:33:58;;;;;;;135.53;41.73;;;-0.50;99.90;;;;;;5041050;28;20229;-65
2022/01/19 01:36:27;;;;;;;135.73;40.73;;;-0.50;99.90;;;;;;5038802;28;20204;-65
2022/01/19 01:38:55;;;;;;;96.07;38.13;;;-0.40;99.90;;;;;;5042543;28;20284;-65
2022/01/19 01:41:25;;;;;;;149.50;40.90;;;-0.30;99.90;;;;;;5041542;28;20673;-65
2022/01/19 01:43:53;;;;;;;139.90;40.77;;;-0.30;99.90;;;;;;5036127;28;20793;-65
2022/01/19 01:46:32;;;;;;;80.50;35.97;;;-0.30;99.90;;;;;;5033785;28;20675;-65
2022/01/19 01:49:01;;;;;;;102.33;39.00;;;-0.30;99.90;;;;;;5042949;28;20265;-65
2022/01/19 01:54:15;;;;;;;167.47;43.33;;;-0.30;99.90;;;;;;5045071;28;20646;-65
2022/01/19 01:56:47;;;;;;;99.63;39.10;;;-0.30;99.90;;;;;;5037153;28;20193;-65
2022/01/19 01:59:15;;;;;;;154.90;41.77;;;-0.30;99.90;;;;;;5038539;28;20417;-65
2022/01/19 02:01:44;;;;;;;192.67;45.20;;;-0.30;99.90;;;;;;5039002;28;20197;-65
2022/01/19 02:04:15;;;;;;;182.30;45.60;;;-0.40;99.90;;;;;;5040505;28;20725;-65
2022/01/19 02:07:05;;;;;;;136.07;41.67;;;-0.40;99.90;;;;;;5042890;28;20820;-65
2022/01/19 02:09:37;;;;;;;160.20;43.53;;;-0.40;99.90;;;;;;5038365;28;20209;-65
2022/01/19 02:23:21;;;;;;;120.33;40.80;;;-0.50;99.90;;;;;;5034749;28;20232;-65
2022/01/19 02:25:52;;;;;;;78.30;35.10;;;-0.50;99.90;;;;;;5039459;28;20274;-65
2022/01/19 02:31:46;;;;;;;78.90;35.13;;;-0.40;99.90;;;;;;5047833;28;20224;-65
2022/01/19 02:42:54;;;;;;;143.33;49.43;;;-0.20;99.90;;;;;;5039274;28;20212;-65
2022/01/19 02:50:56;;;;;;;155.20;41.33;;;-0.20;99.90;;;;;;5041784;28;20200;-65
2022/01/19 02:53:26;;;;;;;127.07;41.47;;;-0.20;99.90;;;;;;5039043;28;20274;-65
2022/01/19 02:55:54;;;;;;;143.80;46.70;;;-0.10;99.90;;;;;;5048046;28;20327;-65
2022/01/19 02:58:24;;;;;;;145.70;47.43;;;-0.10;99.90;;;;;;5043822;28;20190;-65
2022/01/19 03:09:11;;;;;;;88.33;36.70;;;0.00;99.90;;;;;;5020934;28;20793;-65
2022/01/19 03:11:39;;;;;;;81.63;37.70;;;0.10;99.90;;;;;;5041627;28;20220;-65
2022/01/19 03:14:08;;;;;;;87.60;36.77;;;0.20;99.90;;;;;;5047364;28;20192;-65
2022/01/19 03:16:37;;;;;;;81.13;36.90;;;0.20;99.90;;;;;;5044875;28;20673;-65
2022/01/19 03:19:07;;;;;;;85.90;34.87;;;0.20;99.90;;;;;;5045268;28;20201;-66
2022/01/19 03:21:36;;;;;;;84.07;35.87;;;0.20;99.90;;;;;;5044054;28;20221;-64
2022/01/19 03:24:08;;;;;;;87.87;38.50;;;0.20;99.90;;;;;;5057870;28;20205;-65
2022/01/19 03:26:38;;;;;;;92.20;38.77;;;0.20;99.90;;;;;;5040069;28;20198;-65
2022/01/19 03:29:06;;;;;;;94.90;37.60;;;0.20;99.90;;;;;;5046452;28;20687;-66
2022/01/19 03:31:35;;;;;;;86.10;36.70;;;0.20;99.90;;;;;;5041001;28;20193;-64
2022/01/19 03:34:05;;;;;;;77.20;34.90;;;0.20;99.90;;;;;;5045809;28;20221;-65
2022/01/19 03:36:34;;;;;;;82.97;35.17;;;0.30;99.90;;;;;;5044970;28;20571;-66
2022/01/19 03:39:03;;;;;;;84.40;35.73;;;0.30;99.90;;;;;;5042942;28;20652;-65
2022/01/19 03:41:32;;;;;;;76.43;36.43;;;0.30;99.90;;;;;;5045256;28;20209;-65
2022/01/19 03:44:01;;;;;;;91.07;37.73;;;0.40;99.90;;;;;;5043595;28;20320;-65
2022/01/19 03:46:34;;;;;;;81.57;35.40;;;0.40;99.90;;;;;;5042984;28;20193;-65
2022/01/19 03:49:12;;;;;;;80.57;33.57;;;0.40;99.90;;;;;;5045996;28;20197;-65
2022/01/19 03:51:40;;;;;;;83.17;36.87;;;0.50;99.90;;;;;;5041644;28;20724;-65
2022/01/19 03:54:09;;;;;;;93.17;30.73;;;0.50;99.90;;;;;;5044990;28;20201;-65
2022/01/19 03:56:37;;;;;;;85.83;30.57;;;0.80;99.90;;;;;;5035238;28;20235;-65
2022/01/19 03:59:07;;;;;;;81.87;29.17;;;1.00;99.90;;;;;;5040389;28;20279;-65
2022/01/19 04:01:35;;;;;;;86.77;30.20;;;1.40;99.90;;;;;;5045778;28;20231;-64
2022/01/19 04:04:19;;;;;;;82.27;30.47;;;1.60;99.90;;;;;;5044936;28;20204;-65
2022/01/19 04:06:58;;;;;;;78.33;29.03;;;1.70;99.90;;;;;;5041402;28;20213;-66
2022/01/19 04:09:30;;;;;;;82.23;28.93;;;1.90;99.90;;;;;;5038678;28;20625;-65
2022/01/19 04:11:59;;;;;;;81.43;30.23;;;2.00;99.90;;;;;;5043147;28;20244;-65
2022/01/19 04:14:31;;;;;;;85.90;30.83;;;2.10;99.90;;;;;;5037477;28;20205;-65
2022/01/19 04:17:01;;;;;;;73.73;27.93;;;2.10;99.90;;;;;;5040303;28;20284;-66
2022/01/19 04:19:32;;;;;;;76.83;29.00;;;2.10;99.90;;;;;;5042917;28;20264;-66
2022/01/19 04:22:03;;;;;;;73.87;28.93;;;2.20;99.90;;;;;;5042025;28;20652;-66
2022/01/19 04:24:33;;;;;;;66.63;27.33;;;2.10;99.90;;;;;;5041596;28;20197;-66
2022/01/19 04:29:55;;;;;;;68.03;27.77;;;2.10;99.90;;;;;;5045832;28;20230;-65
2022/01/19 04:32:30;;;;;;;62.43;26.13;;;2.20;99.90;;;;;;5045956;28;20299;-66
2022/01/19 04:35:02;;;;;;;72.10;28.47;;;2.20;99.90;;;;;;5043830;28;20214;-65
2022/01/19 04:37:43;;;;;;;74.80;27.40;;;2.20;99.90;;;;;;5043773;28;20748;-66
2022/01/19 04:54:38;;;;;;;67.20;27.47;;;2.30;99.90;;;;;;5026233;28;20229;-65
2022/01/19 05:03:03;;;;;;;67.53;28.50;;;2.10;99.90;;;;;;5044724;28;20280;-65
2022/01/19 05:05:36;;;;;;;67.77;27.40;;;2.20;99.90;;;;;;5050052;28;20202;-66
2022/01/19 05:08:14;;;;;;;63.77;26.20;;;2.20;99.90;;;;;;5052536;28;20279;-66
2022/01/19 05:13:33;;;;;;;60.83;27.33;;;2.20;99.90;;;;;;5041782;28;20704;-66
2022/01/19 05:16:02;;;;;;;67.13;28.77;;;2.30;99.90;;;;;;5048208;28;20298;-66
2022/01/19 05:18:32;;;;;;;71.47;27.67;;;2.30;99.90;;;;;;5040574;28;20226;-66
2022/01/19 05:21:00;;;;;;;61.70;28.77;;;2.30;99.90;;;;;;5047464;28;20789;-66
2022/01/19 05:23:29;;;;;;;58.57;27.20;;;2.30;99.90;;;;;;5047734;28;20203;-66
2022/01/19 05:25:58;;;;;;;65.87;27.53;;;2.40;99.90;;;;;;5048305;28;20287;-66
2022/01/19 05:28:26;;;;;;;61.33;28.17;;;2.40;99.90;;;;;;5041944;28;20197;-66
2022/01/19 05:30:54;;;;;;;57.03;25.90;;;2.40;99.90;;;;;;5046507;28;20913;-66
2022/01/19 05:33:23;;;;;;;57.57;27.33;;;2.40;99.90;;;;;;5043803;28;20707;-66
2022/01/19 05:35:53;;;;;;;56.00;27.23;;;2.50;99.90;;;;;;5042513;28;20675;-66
2022/01/19 05:38:21;;;;;;;60.30;26.07;;;2.60;99.90;;;;;;5042108;28;20223;-65
2022/01/19 05:40:51;;;;;;;61.07;27.27;;;2.60;99.90;;;;;;5031434;28;20255;-66
2022/01/19 05:43:19;;;;;;;54.23;26.10;;;2.60;99.90;;;;;;5041467;28;20235;-66
2022/01/19 05:45:48;;;;;;;50.30;25.50;;;2.60;99.90;;;;;;5038925;28;20197;-66
2022/01/19 05:48:16;;;;;;;50.57;25.33;;;2.60;99.90;;;;;;5025645;28;20276;-65
2022/01/19 05:50:45;;;;;;;52.33;25.03;;;2.60;99.90;;;;;;5044553;28;20224;-66
2022/01/19 05:53:16;;;;;;;52.40;25.80;;;2.70;99.90;;;;;;5045761;28;20236;-66
2022/01/19 05:55:45;;;;;;;55.90;25.93;;;2.70;99.90;;;;;;5042928;28;20220;-66
2022/01/19 05:58:14;;;;;;;50.87;25.17;;;2.70;99.90;;;;;;5041060;28;20303;-66
2022/01/19 06:00:42;;;;;;;48.10;24.33;;;2.70;99.90;;;;;;5038339;28;20235;-66
2022/01/19 06:03:11;;;;;;;47.30;23.53;;;2.70;99.90;;;;;;5041040;28;20208;-66
2022/01/19 06:06:18;;;;;;;39.93;22.67;;;2.80;99.90;;;;;;5041005;28;20207;-66
2022/01/19 06:08:59;;;;;;;44.60;22.37;;;2.80;99.90;;;;;;5041446;28;20200;-66
2022/01/19 06:11:28;;;;;;;39.73;21.23;;;2.80;99.90;;;;;;5042796;28;20195;-66
2022/01/19 06:13:56;;;;;;;36.47;19.00;;;2.80;99.90;;;;;;5041255;28;20212;-66
2022/01/19 06:16:24;;;;;;;35.40;19.80;;;2.90;99.90;;;;;;5039582;28;20250;-66
2022/01/19 06:18:53;;;;;;;31.60;18.73;;;2.90;99.90;;;;;;5039108;28;20202;-66
2022/01/19 06:21:21;;;;;;;31.83;18.43;;;3.00;99.90;;;;;;5045118;28;20283;-66
2022/01/19 06:23:51;;;;;;;33.83;18.07;;;3.10;99.90;;;;;;5050454;28;20196;-66
2022/01/19 06:26:19;;;;;;;28.27;16.30;;;3.10;99.90;;;;;;5052905;28;20291;-66
2022/01/19 06:28:48;;;;;;;27.20;15.27;;;3.20;99.90;;;;;;5042185;28;20198;-66
2022/01/19 06:31:16;;;;;;;24.00;15.53;;;3.20;99.90;;;;;;5046244;28;20393;-66
2022/01/19 06:33:44;;;;;;;21.87;15.17;;;3.30;99.90;;;;;;5044146;28;20299;-66
2022/01/19 06:36:12;;;;;;;24.83;15.63;;;3.30;99.90;;;;;;5048844;28;20199;-66
2022/01/19 06:38:41;;;;;;;25.27;16.10;;;3.30;99.90;;;;;;5039458;28;20301;-66
2022/01/19 06:41:11;;;;;;;27.73;17.00;;;3.40;99.90;;;;;;5040431;28;20212;-66
2022/01/19 06:43:39;;;;;;;28.53;16.97;;;3.40;99.90;;;;;;5045649;28;20204;-66
2022/01/19 06:46:08;;;;;;;27.90;17.00;;;3.50;99.90;;;;;;5038997;28;20198;-66
2022/01/19 06:48:36;;;;;;;28.93;16.63;;;3.50;99.90;;;;;;5041116;28;20181;-65
2022/01/19 06:51:05;;;;;;;27.27;17.27;;;3.60;99.90;;;;;;5042636;28;20234;-66
2022/01/19 06:53:33;;;;;;;28.73;16.90;;;3.60;99.90;;;;;;5043479;28;20235;-66
2022/01/19 06:56:02;;;;;;;27.67;17.13;;;3.60;99.90;;;;;;5042737;28;20193;-66
2022/01/19 06:58:31;;;;;;;25.17;16.50;;;3.60;99.90;;;;;;5043792;28;20228;-66
2022/01/19 07:01:00;;;;;;;29.17;16.90;;;3.60;99.90;;;;;;5038601;28;20672;-65
2022/01/19 07:03:28;;;;;;;27.90;18.07;;;3.60;99.90;;;;;;5048776;28;20250;-66
2022/01/19 07:05:57;;;;;;;29.47;16.33;;;3.50;99.90;;;;;;5040924;28;20718;-66
2022/01/19 07:08:25;;;;;;;27.83;15.87;;;3.50;99.90;;;;;;5039848;28;20256;-66
2022/01/19 07:10:53;;;;;;;27.83;16.83;;;3.50;99.90;;;;;;5046527;28;20223;-66
2022/01/19 07:13:22;;;;;;;26.07;16.20;;;3.50;99.90;;;;;;5044870;28;20196;-66
2022/01/19 07:15:52;;;;;;;29.10;16.93;;;3.50;99.90;;;;;;5047533;28;20197;-66
2022/01/19 07:18:20;;;;;;;27.77;16.77;;;3.50;99.90;;;;;;5048874;28;20213;-66
2022/01/19 07:20:48;;;;;;;29.50;16.87;;;3.50;99.90;;;;;;5050647;28;20231;-65
2022/01/19 07:23:17;;;;;;;23.43;15.80;;;3.50;99.90;;;;;;5056461;28;20189;-66
2022/01/19 07:25:45;;;;;;;26.87;16.17;;;3.50;99.90;;;;;;5051133;28;20288;-65
2022/01/19 07:28:14;;;;;;;26.60;15.90;;;3.50;99.90;;;;;;5051398;28;20197;-66
2022/01/19 07:30:42;;;;;;;26.17;15.80;;;3.60;99.90;;;;;;5052971;28;20631;-66
2022/01/19 07:33:12;;;;;;;29.30;16.60;;;3.50;99.90;;;;;;5052859;28;20842;-66
2022/01/19 07:35:41;;;;;;;27.90;16.13;;;3.60;99.90;;;;;;5045686;28;20355;-65
2022/01/19 07:38:09;;;;;;;27.13;16.60;;;3.60;99.90;;;;;;5045422;28;20220;-65
2022/01/19 07:40:38;;;;;;;29.10;16.90;;;3.60;99.90;;;;;;5026540;28;20217;-65
2022/01/19 07:43:07;;;;;;;25.93;16.23;;;3.50;99.90;;;;;;5049295;28;20291;-66
2022/01/19 07:45:36;;;;;;;25.07;16.70;;;3.50;99.90;;;;;;5042900;28;20196;-65
2022/01/19 07:48:05;;;;;;;29.60;17.37;;;3.50;99.90;;;;;;5044388;28;20196;-65
2022/01/19 07:50:35;;;;;;;30.33;17.07;;;3.50;99.90;;;;;;5047695;28;20774;-66
2022/01/19 07:53:04;;;;;;;27.67;17.07;;;3.50;99.90;;;;;;5050015;28;20735;-66
2022/01/19 07:55:32;;;;;;;31.17;17.70;;;3.60;99.90;;;;;;5048176;28;20305;-65
2022/01/19 07:58:01;;;;;;;29.00;17.23;;;3.60;99.90;;;;;;5043204;28;20828;-68
2022/01/19 08:00:33;;;;;;;39.70;18.67;;;3.60;99.90;;;;;;5048138;28;20205;-66
2022/01/19 08:03:01;;;;;;;33.93;17.90;;;3.60;99.90;;;;;;5049449;28;20655;-65
2022/01/19 08:05:30;;;;;;;30.07;17.83;;;3.70;99.90;;;;;;5050325;28;20200;-65
2022/01/19 08:08:02;;;;;;;29.77;17.60;;;3.70;99.90;;;;;;5041115;28;20200;-65
2022/01/19 08:10:31;;;;;;;29.47;17.47;;;3.70;99.90;;;;;;5045815;28;20213;-65
2022/01/19 08:13:02;;;;;;;27.87;17.40;;;3.70;99.90;;;;;;5042411;28;20191;-65
2022/01/19 08:15:31;;;;;;;45.20;25.40;;;3.70;99.90;;;;;;5046721;28;20243;-65
2022/01/19 08:18:00;;;;;;;31.13;18.03;;;3.70;99.90;;;;;;5043986;28;20721;-66
2022/01/19 08:20:28;;;;;;;34.20;20.37;;;3.70;99.90;;;;;;5039528;28;20284;-65
2022/01/19 08:22:56;;;;;;;46.57;26.10;;;3.70;99.90;;;;;;5043991;28;20193;-66
2022/01/19 08:25:26;;;;;;;42.63;22.83;;;3.70;99.90;;;;;;5039960;28;20221;-65
2022/01/19 08:27:55;;;;;;;34.20;20.17;;;3.60;99.90;;;;;;5046156;28;20631;-66
2022/01/19 08:30:23;;;;;;;37.43;21.77;;;3.60;99.90;;;;;;5045969;28;20230;-66
2022/01/19 08:32:52;;;;;;;60.57;33.10;;;3.60;99.90;;;;;;5041908;28;20312;-66
2022/01/19 08:35:20;;;;;;;41.93;26.67;;;3.60;99.90;;;;;;5029594;28;20251;-66
2022/01/19 08:37:49;;;;;;;109.53;64.83;;;3.60;99.90;;;;;;5037994;28;20291;-65
2022/01/19 08:40:25;;;;;;;88.47;61.30;;;3.60;99.90;;;;;;5043604;28;20230;-65
2022/01/19 08:42:55;;;;;;;38.53;24.37;;;3.70;99.90;;;;;;5039497;28;20201;-66
2022/01/19 08:45:24;;;;;;;32.27;19.70;;;3.70;99.90;;;;;;5043798;28;20193;-66
2022/01/19 08:47:53;;;;;;;36.43;23.33;;;3.70;99.90;;;;;;5046440;28;20288;-66
2022/01/19 08:50:22;;;;;;;52.87;36.07;;;3.70;99.90;;;;;;5043651;28;20243;-66
2022/01/19 08:52:51;;;;;;;30.17;20.00;;;3.70;99.90;;;;;;5046661;28;20216;-66
2022/01/19 08:55:19;;;;;;;31.03;18.90;;;3.70;99.90;;;;;;5047554;28;20201;-66
2022/01/19 08:57:47;;;;;;;30.60;19.20;;;3.80;99.90;;;;;;5042816;28;20276;-66
2022/01/19 09:00:18;;;;;;;29.80;19.27;;;3.80;99.90;;;;;;5051983;28;20562;-65
2022/01/19 09:02:47;;;;;;;34.37;18.47;;;3.80;99.90;;;;;;5038559;28;20254;-65
2022/01/19 09:05:16;;;;;;;29.83;18.83;;;3.80;99.90;;;;;;5044669;28;20201;-66
2022/01/19 09:07:46;;;;;;;35.00;19.83;;;3.80;99.90;;;;;;5045311;28;20188;-65
2022/01/19 09:10:20;;;;;;;32.27;19.43;;;3.80;99.90;;;;;;5044913;28;20598;-65
2022/01/19 09:12:49;;;;;;;34.53;20.53;;;3.80;99.90;;;;;;5043219;28;20218;-65
2022/01/19 09:15:19;;;;;;;35.27;19.80;;;3.90;99.90;;;;;;5047475;28;20608;-66
2022/01/19 09:17:48;;;;;;;39.57;20.83;;;3.80;99.90;;;;;;5047962;28;20217;-65
2022/01/19 09:20:17;;;;;;;33.73;21.07;;;3.80;99.90;;;;;;5045548;28;20307;-66
2022/01/19 09:22:45;;;;;;;77.37;37.67;;;3.80;99.90;;;;;;5040892;28;20282;-66
2022/01/19 09:25:15;;;;;;;125.03;56.97;;;3.90;99.90;;;;;;5054264;28;20197;-66
2022/01/19 09:27:44;;;;;;;103.93;49.97;;;3.80;99.90;;;;;;5046963;28;20199;-65
2022/01/19 09:30:17;;;;;;;65.53;33.27;;;3.80;99.90;;;;;;5045648;28;20201;-65
2022/01/19 09:32:55;;;;;;;47.73;25.40;;;3.90;99.90;;;;;;5045204;28;20248;-65
2022/01/19 09:35:26;;;;;;;39.33;23.40;;;3.90;99.90;;;;;;5033655;28;20188;-66
2022/01/19 09:37:54;;;;;;;32.40;19.07;;;3.90;99.90;;;;;;5038403;28;20225;-66
2022/01/19 09:40:30;;;;;;;37.30;20.67;;;3.90;99.90;;;;;;5048096;28;20631;-65
2022/01/19 09:43:08;;;;;;;70.73;39.73;;;4.00;99.90;;;;;;5043970;28;20877;-66
2022/01/19 09:45:36;;;;;;;55.07;31.67;;;4.00;99.90;;;;;;5041396;28;20189;-65
2022/01/19 09:48:07;;;;;;;68.20;35.30;;;4.00;99.90;;;;;;5043622;28;20192;-65
2022/01/19 09:50:36;;;;;;;60.47;31.07;;;4.00;99.90;;;;;;5041835;28;20197;-65
2022/01/19 09:53:07;;;;;;;79.83;43.60;;;3.90;99.90;;;;;;5043278;28;20216;-66
2022/01/19 09:55:38;;;;;;;52.83;26.70;;;4.00;99.90;;;;;;5039421;28;20248;-65
2022/01/19 09:58:10;;;;;;;33.23;21.50;;;4.10;99.90;;;;;;5039762;28;20627;-66
2022/01/19 10:00:39;;;;;;;39.50;24.77;;;4.00;99.90;;;;;;5042197;28;20249;-65
2022/01/19 10:03:19;;;;;;;32.80;18.47;;;4.10;99.90;;;;;;5045545;28;20199;-66
2022/01/19 10:05:56;;;;;;;35.43;20.80;;;4.10;99.90;;;;;;5037064;28;20197;-66
2022/01/19 10:08:29;;;;;;;35.40;21.07;;;4.10;99.90;;;;;;5040740;28;20637;-65
2022/01/19 10:11:13;;;;;;;39.27;20.70;;;4.10;99.90;;;;;;5043840;28;20211;-65
2022/01/19 10:19:23;;;;;;;41.27;22.10;;;4.20;99.90;;;;;;5043824;28;20278;-66
2022/01/19 10:22:17;;;;;;;35.27;20.07;;;4.20;99.90;;;;;;5044655;28;20200;-66
2022/01/19 10:24:50;;;;;;;39.17;23.97;;;4.10;99.90;;;;;;5017417;28;20608;-65
2022/01/19 10:27:21;;;;;;;38.27;23.57;;;4.20;99.90;;;;;;5043674;28;20196;-66
2022/01/19 10:29:52;;;;;;;39.47;21.17;;;4.10;99.90;;;;;;5047485;28;20216;-66
2022/01/19 10:32:22;;;;;;;34.63;20.30;;;4.10;99.90;;;;;;5036850;28;20644;-65
2022/01/19 10:34:53;;;;;;;43.30;21.47;;;4.10;99.90;;;;;;5038443;28;20251;-66
2022/01/19 10:37:26;;;;;;;36.60;20.83;;;4.10;99.90;;;;;;5058841;28;20232;-66
2022/01/19 10:39:57;;;;;;;36.60;20.33;;;4.10;99.90;;;;;;5046342;28;20217;-66
2022/01/19 10:42:31;;;;;;;37.50;22.07;;;4.20;99.90;;;;;;5046719;28;20200;-66
2022/01/19 10:45:02;;;;;;;38.13;20.97;;;4.20;99.90;;;;;;5034538;28;20280;-66
2022/01/19 10:47:40;;;;;;;39.10;20.63;;;4.20;99.90;;;;;;5041131;28;20753;-64
2022/01/19 10:50:11;;;;;;;41.90;21.30;;;4.30;99.90;;;;;;5039760;28;20201;-65
2022/01/19 10:52:42;;;;;;;38.30;21.20;;;4.30;99.90;;;;;;5050890;28;20287;-65
2022/01/19 10:55:13;;;;;;;36.77;20.73;;;4.30;99.90;;;;;;5041150;28;20436;-66
2022/01/19 10:57:43;;;;;;;37.77;22.03;;;4.30;99.90;;;;;;5043721;28;20189;-65
2022/01/19 11:00:14;;;;;;;37.93;20.93;;;4.30;99.90;;;;;;5053776;28;20285;-66
2022/01/19 11:02:44;;;;;;;38.30;20.83;;;4.30;99.90;;;;;;5067176;28;20271;-66
2022/01/19 11:05:14;;;;;;;47.33;21.13;;;4.30;99.90;;;;;;5054343;28;20203;-66
2022/01/19 11:07:44;;;;;;;34.43;20.07;;;4.30;99.90;;;;;;5042859;28;20614;-66
2022/01/19 11:10:17;;;;;;;44.33;22.17;;;4.30;99.90;;;;;;5049819;28;20201;-66
2022/01/19 11:12:48;;;;;;;45.53;21.53;;;4.30;99.90;;;;;;5062083;28;20219;-67
2022/01/19 11:15:19;;;;;;;41.30;21.17;;;4.30;99.90;;;;;;5044834;28;20200;-67
2022/01/19 11:17:48;;;;;;;49.37;22.77;;;4.40;99.90;;;;;;5047820;28;20220;-67
2022/01/19 11:20:23;;;;;;;47.97;22.20;;;4.40;99.90;;;;;;5052983;28;20209;-66
2022/01/19 11:23:07;;;;;;;51.53;23.90;;;4.30;99.90;;;;;;5070483;28;20666;-66
2022/01/19 11:25:49;;;;;;;50.43;23.60;;;4.40;99.90;;;;;;5054631;28;20203;-65
2022/01/19 11:28:32;;;;;;;50.93;22.87;;;4.50;99.90;;;;;;5050281;28;20709;-66
2022/01/19 11:31:03;;;;;;;49.37;26.87;;;4.50;99.90;;;;;;5046219;28;20200;-66
2022/01/19 11:33:32;;;;;;;48.63;26.73;;;4.50;99.90;;;;;;5047437;28;20236;-65
2022/01/19 11:36:08;;;;;;;50.33;26.70;;;4.50;99.90;;;;;;5050236;28;20201;-66
2022/01/19 11:38:40;;;;;;;50.77;24.50;;;4.50;99.90;;;;;;5045954;28;20225;-66
2022/01/19 11:41:38;;;;;;;51.37;22.47;;;4.50;99.90;;;;;;5054253;28;20220;-66
2022/01/19 11:44:08;;;;;;;51.23;24.83;;;4.50;99.90;;;;;;5051364;28;20250;-65
2022/01/19 11:46:40;;;;;;;50.10;23.20;;;4.60;99.90;;;;;;5047084;28;20201;-66
2022/01/19 11:49:11;;;;;;;49.83;23.37;;;4.60;99.90;;;;;;5046963;28;20204;-66
2022/01/19 11:51:43;;;;;;;44.73;21.60;;;4.70;99.90;;;;;;5049146;28;20712;-66
2022/01/19 11:54:16;;;;;;;48.73;21.30;;;4.80;99.90;;;;;;5055739;28;20758;-66
2022/01/19 11:57:11;;;;;;;55.50;22.97;;;4.80;99.90;;;;;;5045985;28;20254;-65
2022/01/19 12:00:07;;;;;;;48.23;21.57;;;4.80;99.90;;;;;;5041853;28;20198;-65
2022/01/19 12:02:39;;;;;;;47.93;27.10;;;4.80;99.90;;;;;;5042555;28;20244;-65
2022/01/19 12:06:05;;;;;;;46.57;22.43;;;4.80;99.90;;;;;;5043432;28;20771;-66
2022/01/19 12:08:37;;;;;;;42.80;22.73;;;4.90;99.90;;;;;;5051337;28;20193;-65
2022/01/19 12:11:15;;;;;;;47.40;22.47;;;5.00;99.90;;;;;;5051104;28;20188;-66
2022/01/19 12:13:58;;;;;;;40.37;22.23;;;5.00;99.90;;;;;;5039660;28;20591;-65
2022/01/19 12:16:47;;;;;;;44.87;23.20;;;5.00;99.90;;;;;;5046273;28;20348;-66
2022/01/19 12:19:20;;;;;;;50.63;23.43;;;5.00;99.90;;;;;;5046552;28;20192;-66
2022/01/19 12:21:54;;;;;;;45.93;23.73;;;5.00;99.90;;;;;;5042895;28;20574;-66
2022/01/19 12:24:38;;;;;;;48.67;22.50;;;5.10;99.90;;;;;;5045053;28;20255;-67
2022/01/19 12:27:11;;;;;;;44.23;22.63;;;5.10;99.90;;;;;;5047723;28;20609;-68
2022/01/19 12:29:51;;;;;;;51.50;23.67;;;5.10;99.90;;;;;;5051327;28;20197;-65
2022/01/19 12:32:54;;;;;;;45.80;22.93;;;5.10;99.90;;;;;;5049849;28;20196;-65
2022/01/19 12:35:35;;;;;;;54.50;23.57;;;5.10;99.90;;;;;;5046690;28;20228;-65
2022/01/19 12:38:08;;;;;;;47.83;25.80;;;5.10;99.90;;;;;;5058852;28;20200;-66
2022/01/19 12:40:47;;;;;;;49.83;26.10;;;5.20;99.90;;;;;;5042435;28;20706;-66
2022/01/19 12:43:31;;;;;;;46.10;24.23;;;5.20;99.90;;;;;;5045831;28;20296;-66
2022/01/19 12:46:00;;;;;;;51.80;27.70;;;5.20;99.90;;;;;;5045948;28;20576;-65
2022/01/19 12:48:48;;;;;;;81.70;44.57;;;5.30;99.90;;;;;;5050206;28;20207;-66
2022/01/19 12:51:39;;;;;;;56.10;31.30;;;5.30;99.90;;;;;;5045754;28;20201;-66
2022/01/19 12:54:11;;;;;;;96.30;49.67;;;5.40;99.90;;;;;;5043701;28;20211;-66
2022/01/19 12:57:01;;;;;;;119.97;56.57;;;5.40;99.90;;;;;;5048053;28;20208;-66
2022/01/19 12:59:31;;;;;;;55.50;28.37;;;5.40;99.90;;;;;;5044584;28;20208;-66
2022/01/19 13:02:00;;;;;;;49.30;24.33;;;5.40;99.90;;;;;;5048581;28;20687;-66
2022/01/19 13:04:31;;;;;;;48.17;25.23;;;5.30;99.90;;;;;;5049642;28;20197;-65
2022/01/19 13:07:17;;;;;;;60.93;33.80;;;5.40;99.90;;;;;;5043727;28;20231;-66
2022/01/19 13:10:18;;;;;;;63.57;36.73;;;5.30;99.90;;;;;;5045540;28;20595;-66
2022/01/19 13:12:56;;;;;;;49.27;28.17;;;5.30;99.90;;;;;;5044648;28;20961;-65
2022/01/19 13:15:25;;;;;;;78.60;45.30;;;5.20;99.90;;;;;;5045837;28;20254;-66
2022/01/19 13:17:54;;;;;;;43.40;23.73;;;5.30;99.90;;;;;;5047311;28;20849;-66
2022/01/19 13:20:24;;;;;;;47.43;25.90;;;5.30;99.90;;;;;;5042900;28;20710;-66
2022/01/19 13:22:56;;;;;;;45.00;24.80;;;5.30;99.90;;;;;;5044177;28;20258;-65
2022/01/19 13:25:26;;;;;;;46.83;25.87;;;5.30;99.90;;;;;;5044560;28;20687;-66
2022/01/19 13:27:58;;;;;;;49.80;27.97;;;5.30;99.90;;;;;;5046191;28;20576;-66
2022/01/19 13:30:28;;;;;;;62.27;31.47;;;5.40;99.90;;;;;;5045795;28;20227;-66
2022/01/19 13:32:57;;;;;;;75.90;39.03;;;5.40;99.90;;;;;;5044663;28;20303;-66
2022/01/19 13:35:27;;;;;;;78.73;40.87;;;5.40;99.90;;;;;;5043338;28;20203;-66
2022/01/19 13:37:56;;;;;;;100.47;51.10;;;5.40;99.90;;;;;;5048526;28;20250;-66
2022/01/19 13:40:27;;;;;;;62.60;31.60;;;5.40;99.90;;;;;;5045490;28;20220;-66
2022/01/19 13:43:00;;;;;;;81.83;43.17;;;5.50;99.90;;;;;;5041871;28;20193;-66
2022/01/19 13:45:35;;;;;;;54.43;28.17;;;5.40;99.90;;;;;;5043201;28;20224;-66
2022/01/19 13:48:20;;;;;;;49.27;24.60;;;5.50;99.90;;;;;;5042021;28;20295;-66
2022/01/19 13:50:50;;;;;;;50.13;26.23;;;5.50;99.90;;;;;;5044412;28;20228;-66
2022/01/19 13:53:27;;;;;;;51.87;26.53;;;5.50;99.90;;;;;;5046324;28;20193;-66
2022/01/19 13:55:57;;;;;;;74.13;38.93;;;5.60;99.90;;;;;;5041181;28;21733;-66
2022/01/19 13:58:35;;;;;;;70.57;40.33;;;5.60;99.90;;;;;;5040582;28;20188;-65
2022/01/19 14:01:08;;;;;;;51.57;25.87;;;5.60;99.90;;;;;;5043913;28;20315;-66
2022/01/19 14:03:49;;;;;;;65.43;35.07;;;5.60;99.90;;;;;;5036199;28;20216;-65
2022/01/19 14:06:24;;;;;;;67.47;37.10;;;5.60;99.90;;;;;;5038813;28;20252;-68
2022/01/19 14:09:08;;;;;;;74.40;35.67;;;5.70;99.90;;;;;;5043739;28;20238;-66
2022/01/19 14:11:37;;;;;;;103.90;54.30;;;5.70;99.90;;;;;;5057178;28;20207;-65